sensor_id;sensor_type;location;lat;lon;timestamp;P1;durP1;ratioP1;P2;durP2;ratioP2
56455;SDS011;42354;53.218;6.564;2023-03-25T00:01:05;20.85;;;3.13;;
56455;SDS011;42354;53.218;6.564;2023-03-25T00:03:33;21.42;;;3.03;;
56455;SDS011;42354;53.218;6.564;2023-03-25T00:05:59;27.27;;;2.88;;
56455;SDS011;42354;53.218;6.564;2023-03-25T00:08:26;21.35;;;3.15;;
56455;SDS011;42354;53.218;6.564;2023-03-25T00:10:52;22.70;;;2.70;;
56455;SDS011;42354;53.218;6.564;2023-03-25T00:13:18;26.63;;;3.28;;
56455;SDS011;42354;53.218;6.564;2023-03-25T00:15:45;21.45;;;3.30;;
56455;SDS011;42354;53.218;6.564;2023-03-25T00:18:11;13.20;;;2.25;;
56455;SDS011;42354;53.218;6.564;2023-03-25T00:20:37;24.90;;;3.35;;
56455;SDS011;42354;53.218;6.564;2023-03-25T00:23:09;16.27;;;2.65;;
56455;SDS011;42354;53.218;6.564;2023-03-25T00:25:35;22.08;;;4.18;;
56455;SDS011;42354;53.218;6.564;2023-03-25T00:28:02;21.80;;;3.33;;
56455;SDS011;42354;53.218;6.564;2023-03-25T00:30:27;15.13;;;2.88;;
56455;SDS011;42354;53.218;6.564;2023-03-25T00:32:52;16.45;;;2.22;;
56455;SDS011;42354;53.218;6.564;2023-03-25T00:35:18;20.27;;;2.95;;
56455;SDS011;42354;53.218;6.564;2023-03-25T00:37:44;20.25;;;2.58;;
56455;SDS011;42354;53.218;6.564;2023-03-25T00:40:12;17.42;;;2.28;;
56455;SDS011;42354;53.218;6.564;2023-03-25T00:42:38;21.15;;;2.80;;
56455;SDS011;42354;53.218;6.564;2023-03-25T00:45:09;14.95;;;2.08;;
56455;SDS011;42354;53.218;6.564;2023-03-25T00:47:36;20.30;;;2.10;;
56455;SDS011;42354;53.218;6.564;2023-03-25T00:50:02;18.08;;;2.58;;
56455;SDS011;42354;53.218;6.564;2023-03-25T00:52:28;24.13;;;2.85;;
56455;SDS011;42354;53.218;6.564;2023-03-25T00:54:53;16.42;;;2.30;;
56455;SDS011;42354;53.218;6.564;2023-03-25T00:57:19;17.17;;;2.90;;
56455;SDS011;42354;53.218;6.564;2023-03-25T00:59:45;21.70;;;2.75;;
56455;SDS011;42354;53.218;6.564;2023-03-25T01:02:10;18.30;;;3.15;;
56455;SDS011;42354;53.218;6.564;2023-03-25T01:04:36;24.95;;;2.55;;
56455;SDS011;42354;53.218;6.564;2023-03-25T01:07:04;23.10;;;3.60;;
56455;SDS011;42354;53.218;6.564;2023-03-25T01:09:31;25.10;;;2.35;;
56455;SDS011;42354;53.218;6.564;2023-03-25T01:11:57;20.42;;;3.33;;
56455;SDS011;42354;53.218;6.564;2023-03-25T01:14:23;19.73;;;2.75;;
56455;SDS011;42354;53.218;6.564;2023-03-25T01:16:51;22.20;;;3.00;;
56455;SDS011;42354;53.218;6.564;2023-03-25T01:19:18;26.90;;;3.35;;
56455;SDS011;42354;53.218;6.564;2023-03-25T01:21:44;20.35;;;2.92;;
56455;SDS011;42354;53.218;6.564;2023-03-25T01:24:12;23.40;;;2.92;;
56455;SDS011;42354;53.218;6.564;2023-03-25T01:26:40;32.72;;;4.40;;
56455;SDS011;42354;53.218;6.564;2023-03-25T01:29:08;27.73;;;3.55;;
56455;SDS011;42354;53.218;6.564;2023-03-25T01:31:34;24.73;;;3.65;;
56455;SDS011;42354;53.218;6.564;2023-03-25T01:34:00;30.13;;;3.20;;
56455;SDS011;42354;53.218;6.564;2023-03-25T01:36:25;29.48;;;3.00;;
56455;SDS011;42354;53.218;6.564;2023-03-25T01:38:57;21.65;;;3.10;;
56455;SDS011;42354;53.218;6.564;2023-03-25T01:41:24;30.67;;;3.75;;
56455;SDS011;42354;53.218;6.564;2023-03-25T01:44:07;20.95;;;3.28;;
56455;SDS011;42354;53.218;6.564;2023-03-25T01:46:53;32.60;;;3.17;;
56455;SDS011;42354;53.218;6.564;2023-03-25T01:49:20;22.80;;;3.70;;
56455;SDS011;42354;53.218;6.564;2023-03-25T01:51:49;35.05;;;3.20;;
56455;SDS011;42354;53.218;6.564;2023-03-25T01:54:18;28.02;;;3.97;;
56455;SDS011;42354;53.218;6.564;2023-03-25T01:56:45;25.92;;;3.70;;
56455;SDS011;42354;53.218;6.564;2023-03-25T01:59:13;28.70;;;3.38;;
56455;SDS011;42354;53.218;6.564;2023-03-25T02:01:42;28.17;;;3.72;;
56455;SDS011;42354;53.218;6.564;2023-03-25T02:04:12;35.08;;;3.83;;
56455;SDS011;42354;53.218;6.564;2023-03-25T02:09:08;27.13;;;3.35;;
56455;SDS011;42354;53.218;6.564;2023-03-25T02:11:36;33.45;;;4.15;;
56455;SDS011;42354;53.218;6.564;2023-03-25T02:14:08;33.70;;;5.18;;
56455;SDS011;42354;53.218;6.564;2023-03-25T02:16:44;33.20;;;3.90;;
56455;SDS011;42354;53.218;6.564;2023-03-25T02:22:24;37.20;;;4.70;;
56455;SDS011;42354;53.218;6.564;2023-03-25T02:41:58;37.60;;;5.63;;
56455;SDS011;42354;53.218;6.564;2023-03-25T02:44:37;64.32;;;5.85;;
56455;SDS011;42354;53.218;6.564;2023-03-25T02:47:06;33.40;;;5.15;;
56455;SDS011;42354;53.218;6.564;2023-03-25T02:49:36;39.97;;;4.30;;
56455;SDS011;42354;53.218;6.564;2023-03-25T02:52:26;31.63;;;4.15;;
56455;SDS011;42354;53.218;6.564;2023-03-25T02:54:57;46.40;;;5.20;;
56455;SDS011;42354;53.218;6.564;2023-03-25T02:57:25;35.20;;;5.90;;
56455;SDS011;42354;53.218;6.564;2023-03-25T02:59:52;35.70;;;4.25;;
56455;SDS011;42354;53.218;6.564;2023-03-25T03:02:21;34.05;;;4.50;;
56455;SDS011;42354;53.218;6.564;2023-03-25T03:04:51;36.92;;;3.88;;
56455;SDS011;42354;53.218;6.564;2023-03-25T03:07:28;35.38;;;4.82;;
56455;SDS011;42354;53.218;6.564;2023-03-25T03:12:44;30.45;;;5.25;;
56455;SDS011;42354;53.218;6.564;2023-03-25T03:15:36;27.20;;;4.25;;
56455;SDS011;42354;53.218;6.564;2023-03-25T03:21:17;31.17;;;4.95;;
56455;SDS011;42354;53.218;6.564;2023-03-25T03:24:04;32.45;;;3.75;;
56455;SDS011;42354;53.218;6.564;2023-03-25T03:26:37;26.23;;;3.50;;
56455;SDS011;42354;53.218;6.564;2023-03-25T03:34:48;28.73;;;4.20;;
56455;SDS011;42354;53.218;6.564;2023-03-25T03:37:18;25.42;;;4.03;;
56455;SDS011;42354;53.218;6.564;2023-03-25T03:39:52;28.33;;;3.80;;
56455;SDS011;42354;53.218;6.564;2023-03-25T03:42:25;23.13;;;3.47;;
56455;SDS011;42354;53.218;6.564;2023-03-25T03:45:03;33.53;;;4.05;;
56455;SDS011;42354;53.218;6.564;2023-03-25T03:47:35;26.30;;;3.30;;
56455;SDS011;42354;53.218;6.564;2023-03-25T03:50:08;26.00;;;3.58;;
56455;SDS011;42354;53.218;6.564;2023-03-25T03:52:42;31.42;;;3.75;;
56455;SDS011;42354;53.218;6.564;2023-03-25T03:55:16;34.92;;;4.38;;
56455;SDS011;42354;53.218;6.564;2023-03-25T03:58:10;25.55;;;4.00;;
56455;SDS011;42354;53.218;6.564;2023-03-25T04:00:47;34.45;;;3.38;;
56455;SDS011;42354;53.218;6.564;2023-03-25T04:03:16;21.55;;;3.15;;
56455;SDS011;42354;53.218;6.564;2023-03-25T04:05:50;28.45;;;3.40;;
56455;SDS011;42354;53.218;6.564;2023-03-25T04:08:28;30.60;;;3.72;;
56455;SDS011;42354;53.218;6.564;2023-03-25T04:10:59;38.42;;;4.55;;
56455;SDS011;42354;53.218;6.564;2023-03-25T04:13:33;29.95;;;4.25;;
56455;SDS011;42354;53.218;6.564;2023-03-25T04:16:02;36.33;;;4.35;;
56455;SDS011;42354;53.218;6.564;2023-03-25T04:18:28;30.23;;;3.70;;
56455;SDS011;42354;53.218;6.564;2023-03-25T04:20:57;30.85;;;4.45;;
56455;SDS011;42354;53.218;6.564;2023-03-25T04:23:23;31.70;;;4.38;;
56455;SDS011;42354;53.218;6.564;2023-03-25T04:25:50;42.08;;;4.47;;
56455;SDS011;42354;53.218;6.564;2023-03-25T04:28:17;33.47;;;4.43;;
56455;SDS011;42354;53.218;6.564;2023-03-25T04:30:44;34.17;;;4.15;;
56455;SDS011;42354;53.218;6.564;2023-03-25T04:33:13;28.40;;;4.15;;
56455;SDS011;42354;53.218;6.564;2023-03-25T04:35:40;31.05;;;4.20;;
56455;SDS011;42354;53.218;6.564;2023-03-25T04:38:05;28.95;;;3.85;;
56455;SDS011;42354;53.218;6.564;2023-03-25T04:40:32;34.67;;;4.78;;
56455;SDS011;42354;53.218;6.564;2023-03-25T04:42:57;27.23;;;4.60;;
56455;SDS011;42354;53.218;6.564;2023-03-25T04:45:24;28.23;;;3.83;;
56455;SDS011;42354;53.218;6.564;2023-03-25T04:47:52;35.70;;;4.10;;
56455;SDS011;42354;53.218;6.564;2023-03-25T04:52:49;30.95;;;3.45;;
56455;SDS011;42354;53.218;6.564;2023-03-25T04:55:15;33.35;;;4.57;;
56455;SDS011;42354;53.218;6.564;2023-03-25T04:57:44;25.70;;;3.70;;
56455;SDS011;42354;53.218;6.564;2023-03-25T05:00:14;35.15;;;4.18;;
56455;SDS011;42354;53.218;6.564;2023-03-25T05:02:42;29.20;;;3.75;;
56455;SDS011;42354;53.218;6.564;2023-03-25T05:05:10;40.65;;;5.25;;
56455;SDS011;42354;53.218;6.564;2023-03-25T05:07:45;30.52;;;5.07;;
56455;SDS011;42354;53.218;6.564;2023-03-25T05:10:13;39.22;;;5.45;;
56455;SDS011;42354;53.218;6.564;2023-03-25T05:12:40;33.83;;;5.15;;
56455;SDS011;42354;53.218;6.564;2023-03-25T05:15:07;38.30;;;4.43;;
56455;SDS011;42354;53.218;6.564;2023-03-25T05:17:34;34.70;;;4.90;;
56455;SDS011;42354;53.218;6.564;2023-03-25T05:19:59;31.55;;;4.45;;
56455;SDS011;42354;53.218;6.564;2023-03-25T05:22:25;35.42;;;4.35;;
56455;SDS011;42354;53.218;6.564;2023-03-25T05:24:50;27.63;;;3.55;;
56455;SDS011;42354;53.218;6.564;2023-03-25T05:27:17;32.38;;;5.35;;
56455;SDS011;42354;53.218;6.564;2023-03-25T05:29:47;27.80;;;4.15;;
56455;SDS011;42354;53.218;6.564;2023-03-25T05:32:12;34.15;;;3.80;;
56455;SDS011;42354;53.218;6.564;2023-03-25T05:34:42;37.55;;;4.82;;
56455;SDS011;42354;53.218;6.564;2023-03-25T05:37:10;33.10;;;5.43;;
56455;SDS011;42354;53.218;6.564;2023-03-25T05:39:37;36.22;;;5.05;;
56455;SDS011;42354;53.218;6.564;2023-03-25T05:42:02;37.45;;;4.05;;
56455;SDS011;42354;53.218;6.564;2023-03-25T05:44:28;28.58;;;4.28;;
56455;SDS011;42354;53.218;6.564;2023-03-25T05:46:53;27.45;;;3.97;;
56455;SDS011;42354;53.218;6.564;2023-03-25T05:49:19;39.13;;;4.45;;
56455;SDS011;42354;53.218;6.564;2023-03-25T05:51:45;33.92;;;4.53;;
56455;SDS011;42354;53.218;6.564;2023-03-25T05:54:13;34.25;;;3.67;;
56455;SDS011;42354;53.218;6.564;2023-03-25T05:56:40;36.00;;;5.35;;
56455;SDS011;42354;53.218;6.564;2023-03-25T05:59:07;39.95;;;5.80;;
56455;SDS011;42354;53.218;6.564;2023-03-25T06:01:33;27.85;;;3.75;;
56455;SDS011;42354;53.218;6.564;2023-03-25T06:04:01;31.88;;;4.30;;
56455;SDS011;42354;53.218;6.564;2023-03-25T06:06:27;28.33;;;3.65;;
56455;SDS011;42354;53.218;6.564;2023-03-25T06:08:53;31.77;;;4.65;;
56455;SDS011;42354;53.218;6.564;2023-03-25T06:11:19;28.27;;;4.93;;
56455;SDS011;42354;53.218;6.564;2023-03-25T06:13:46;34.70;;;5.55;;
56455;SDS011;42354;53.218;6.564;2023-03-25T06:16:17;32.80;;;3.83;;
56455;SDS011;42354;53.218;6.564;2023-03-25T06:18:47;32.00;;;5.10;;
56455;SDS011;42354;53.218;6.564;2023-03-25T06:21:18;27.70;;;4.53;;
56455;SDS011;42354;53.218;6.564;2023-03-25T06:23:45;25.50;;;3.58;;
56455;SDS011;42354;53.218;6.564;2023-03-25T06:26:13;34.40;;;4.20;;
56455;SDS011;42354;53.218;6.564;2023-03-25T06:28:43;30.83;;;5.90;;
56455;SDS011;42354;53.218;6.564;2023-03-25T06:31:12;33.90;;;4.97;;
56455;SDS011;42354;53.218;6.564;2023-03-25T06:33:40;34.22;;;5.00;;
56455;SDS011;42354;53.218;6.564;2023-03-25T06:36:06;28.33;;;5.03;;
56455;SDS011;42354;53.218;6.564;2023-03-25T06:38:32;26.45;;;3.10;;
56455;SDS011;42354;53.218;6.564;2023-03-25T06:40:58;27.02;;;3.53;;
56455;SDS011;42354;53.218;6.564;2023-03-25T06:43:23;32.45;;;4.15;;
56455;SDS011;42354;53.218;6.564;2023-03-25T06:45:49;33.70;;;4.00;;
56455;SDS011;42354;53.218;6.564;2023-03-25T06:48:15;21.48;;;3.70;;
56455;SDS011;42354;53.218;6.564;2023-03-25T06:50:40;26.70;;;4.40;;
56455;SDS011;42354;53.218;6.564;2023-03-25T06:53:06;29.27;;;5.45;;
56455;SDS011;42354;53.218;6.564;2023-03-25T06:55:31;31.60;;;3.70;;
56455;SDS011;42354;53.218;6.564;2023-03-25T06:57:57;29.25;;;5.13;;
56455;SDS011;42354;53.218;6.564;2023-03-25T07:00:23;33.15;;;3.97;;
56455;SDS011;42354;53.218;6.564;2023-03-25T07:02:52;29.40;;;3.78;;
56455;SDS011;42354;53.218;6.564;2023-03-25T07:05:18;28.75;;;4.60;;
56455;SDS011;42354;53.218;6.564;2023-03-25T07:07:43;32.33;;;4.30;;
56455;SDS011;42354;53.218;6.564;2023-03-25T07:10:12;31.42;;;3.90;;
56455;SDS011;42354;53.218;6.564;2023-03-25T07:12:37;29.33;;;4.38;;
56455;SDS011;42354;53.218;6.564;2023-03-25T07:15:04;21.85;;;4.18;;
56455;SDS011;42354;53.218;6.564;2023-03-25T07:17:29;21.67;;;3.78;;
56455;SDS011;42354;53.218;6.564;2023-03-25T07:19:55;26.35;;;4.20;;
56455;SDS011;42354;53.218;6.564;2023-03-25T07:22:22;29.42;;;4.18;;
56455;SDS011;42354;53.218;6.564;2023-03-25T07:24:48;32.40;;;4.85;;
56455;SDS011;42354;53.218;6.564;2023-03-25T07:27:15;26.55;;;3.03;;
56455;SDS011;42354;53.218;6.564;2023-03-25T07:29:42;25.67;;;3.03;;
56455;SDS011;42354;53.218;6.564;2023-03-25T07:32:07;19.23;;;3.00;;
56455;SDS011;42354;53.218;6.564;2023-03-25T07:34:33;20.02;;;2.88;;
56455;SDS011;42354;53.218;6.564;2023-03-25T07:36:58;27.45;;;5.20;;
56455;SDS011;42354;53.218;6.564;2023-03-25T07:39:24;26.48;;;4.10;;
56455;SDS011;42354;53.218;6.564;2023-03-25T07:41:53;21.10;;;3.00;;
56455;SDS011;42354;53.218;6.564;2023-03-25T07:44:19;28.80;;;3.47;;
56455;SDS011;42354;53.218;6.564;2023-03-25T07:46:46;22.83;;;3.70;;
56455;SDS011;42354;53.218;6.564;2023-03-25T07:49:13;27.92;;;3.28;;
56455;SDS011;42354;53.218;6.564;2023-03-25T07:51:40;26.52;;;3.42;;
56455;SDS011;42354;53.218;6.564;2023-03-25T07:54:06;25.20;;;4.00;;
56455;SDS011;42354;53.218;6.564;2023-03-25T07:56:32;19.20;;;2.90;;
56455;SDS011;42354;53.218;6.564;2023-03-25T07:58:58;15.65;;;2.22;;
56455;SDS011;42354;53.218;6.564;2023-03-25T08:01:25;19.98;;;2.30;;
56455;SDS011;42354;53.218;6.564;2023-03-25T08:03:51;19.65;;;2.75;;
56455;SDS011;42354;53.218;6.564;2023-03-25T08:06:16;21.02;;;4.03;;
56455;SDS011;42354;53.218;6.564;2023-03-25T08:08:42;16.83;;;2.70;;
56455;SDS011;42354;53.218;6.564;2023-03-25T08:11:07;26.40;;;3.78;;
56455;SDS011;42354;53.218;6.564;2023-03-25T08:13:33;21.50;;;3.20;;
56455;SDS011;42354;53.218;6.564;2023-03-25T08:15:59;19.85;;;2.72;;
56455;SDS011;42354;53.218;6.564;2023-03-25T08:18:25;21.50;;;3.25;;
56455;SDS011;42354;53.218;6.564;2023-03-25T08:20:50;24.40;;;2.70;;
56455;SDS011;42354;53.218;6.564;2023-03-25T08:23:16;24.67;;;2.72;;
56455;SDS011;42354;53.218;6.564;2023-03-25T08:25:45;17.10;;;2.92;;
56455;SDS011;42354;53.218;6.564;2023-03-25T08:28:15;21.25;;;2.47;;
56455;SDS011;42354;53.218;6.564;2023-03-25T08:30:45;18.88;;;2.22;;
56455;SDS011;42354;53.218;6.564;2023-03-25T08:33:18;18.17;;;2.80;;
56455;SDS011;42354;53.218;6.564;2023-03-25T08:35:46;24.83;;;3.10;;
56455;SDS011;42354;53.218;6.564;2023-03-25T08:38:12;15.90;;;2.35;;
56455;SDS011;42354;53.218;6.564;2023-03-25T08:40:38;16.20;;;2.60;;
56455;SDS011;42354;53.218;6.564;2023-03-25T08:43:09;16.58;;;2.90;;
56455;SDS011;42354;53.218;6.564;2023-03-25T08:45:35;21.48;;;3.05;;
56455;SDS011;42354;53.218;6.564;2023-03-25T08:48:01;21.33;;;2.80;;
56455;SDS011;42354;53.218;6.564;2023-03-25T08:50:28;23.15;;;3.63;;
56455;SDS011;42354;53.218;6.564;2023-03-25T08:52:55;24.33;;;3.65;;
56455;SDS011;42354;53.218;6.564;2023-03-25T08:55:22;22.45;;;3.63;;
56455;SDS011;42354;53.218;6.564;2023-03-25T08:57:48;24.45;;;4.43;;
56455;SDS011;42354;53.218;6.564;2023-03-25T09:00:16;23.00;;;3.35;;
56455;SDS011;42354;53.218;6.564;2023-03-25T09:02:48;27.23;;;4.25;;
56455;SDS011;42354;53.218;6.564;2023-03-25T09:05:14;22.92;;;3.85;;
56455;SDS011;42354;53.218;6.564;2023-03-25T09:07:41;26.90;;;3.80;;
56455;SDS011;42354;53.218;6.564;2023-03-25T09:10:07;18.33;;;3.03;;
56455;SDS011;42354;53.218;6.564;2023-03-25T09:12:33;14.35;;;2.60;;
56455;SDS011;42354;53.218;6.564;2023-03-25T09:14:58;22.02;;;3.15;;
56455;SDS011;42354;53.218;6.564;2023-03-25T09:17:24;24.35;;;4.05;;
56455;SDS011;42354;53.218;6.564;2023-03-25T09:19:49;25.27;;;3.25;;
56455;SDS011;42354;53.218;6.564;2023-03-25T09:22:15;24.15;;;3.42;;
56455;SDS011;42354;53.218;6.564;2023-03-25T09:24:42;36.15;;;4.65;;
56455;SDS011;42354;53.218;6.564;2023-03-25T09:27:08;22.52;;;3.10;;
56455;SDS011;42354;53.218;6.564;2023-03-25T09:29:35;22.75;;;3.58;;
56455;SDS011;42354;53.218;6.564;2023-03-25T09:32:00;14.80;;;2.17;;
56455;SDS011;42354;53.218;6.564;2023-03-25T09:34:26;22.13;;;2.38;;
56455;SDS011;42354;53.218;6.564;2023-03-25T09:36:53;19.65;;;2.55;;
56455;SDS011;42354;53.218;6.564;2023-03-25T09:39:19;16.35;;;2.92;;
56455;SDS011;42354;53.218;6.564;2023-03-25T09:41:49;25.27;;;3.58;;
56455;SDS011;42354;53.218;6.564;2023-03-25T09:44:51;18.67;;;3.50;;
56455;SDS011;42354;53.218;6.564;2023-03-25T09:47:23;24.58;;;3.85;;
56455;SDS011;42354;53.218;6.564;2023-03-25T09:49:52;21.25;;;2.75;;
56455;SDS011;42354;53.218;6.564;2023-03-25T09:52:24;22.27;;;3.30;;
56455;SDS011;42354;53.218;6.564;2023-03-25T09:55:05;18.98;;;2.70;;
56455;SDS011;42354;53.218;6.564;2023-03-25T09:57:39;19.35;;;4.13;;
56455;SDS011;42354;53.218;6.564;2023-03-25T10:00:10;21.90;;;3.08;;
56455;SDS011;42354;53.218;6.564;2023-03-25T10:02:46;17.98;;;2.42;;
56455;SDS011;42354;53.218;6.564;2023-03-25T10:05:47;20.27;;;2.78;;
56455;SDS011;42354;53.218;6.564;2023-03-25T10:08:23;17.80;;;3.22;;
56455;SDS011;42354;53.218;6.564;2023-03-25T10:22:24;16.95;;;2.20;;
56455;SDS011;42354;53.218;6.564;2023-03-25T10:25:08;20.42;;;3.42;;
56455;SDS011;42354;53.218;6.564;2023-03-25T10:27:41;23.77;;;3.75;;
56455;SDS011;42354;53.218;6.564;2023-03-25T10:30:22;24.05;;;2.80;;
56455;SDS011;42354;53.218;6.564;2023-03-25T10:32:59;20.77;;;3.58;;
56455;SDS011;42354;53.218;6.564;2023-03-25T10:35:35;18.08;;;3.83;;
56455;SDS011;42354;53.218;6.564;2023-03-25T10:40:46;28.00;;;2.70;;
56455;SDS011;42354;53.218;6.564;2023-03-25T10:46:39;16.38;;;2.35;;
56455;SDS011;42354;53.218;6.564;2023-03-25T10:48:58;20.85;;;3.72;;
56455;SDS011;42354;53.218;6.564;2023-03-25T10:51:41;22.33;;;2.75;;
56455;SDS011;42354;53.218;6.564;2023-03-25T10:54:11;21.42;;;2.95;;
56455;SDS011;42354;53.218;6.564;2023-03-25T10:56:45;18.38;;;2.65;;
56455;SDS011;42354;53.218;6.564;2023-03-25T11:01:57;34.90;;;2.83;;
56455;SDS011;42354;53.218;6.564;2023-03-25T11:04:30;26.70;;;4.93;;
56455;SDS011;42354;53.218;6.564;2023-03-25T11:07:00;18.50;;;3.50;;
56455;SDS011;42354;53.218;6.564;2023-03-25T11:09:30;20.52;;;3.15;;
56455;SDS011;42354;53.218;6.564;2023-03-25T11:12:00;19.63;;;3.28;;
56455;SDS011;42354;53.218;6.564;2023-03-25T11:14:27;21.92;;;2.85;;
56455;SDS011;42354;53.218;6.564;2023-03-25T11:17:00;20.83;;;3.72;;
56455;SDS011;42354;53.218;6.564;2023-03-25T11:19:38;18.13;;;3.28;;
56455;SDS011;42354;53.218;6.564;2023-03-25T11:24:50;17.70;;;4.07;;
56455;SDS011;42354;53.218;6.564;2023-03-25T11:27:23;20.42;;;2.78;;
56455;SDS011;42354;53.218;6.564;2023-03-25T11:30:34;12.27;;;2.53;;
56455;SDS011;42354;53.218;6.564;2023-03-25T11:32:55;17.38;;;2.40;;
56455;SDS011;42354;53.218;6.564;2023-03-25T11:35:29;16.10;;;2.65;;
56455;SDS011;42354;53.218;6.564;2023-03-25T11:38:00;16.20;;;3.33;;
56455;SDS011;42354;53.218;6.564;2023-03-25T11:40:38;14.82;;;2.95;;
56455;SDS011;42354;53.218;6.564;2023-03-25T11:43:27;15.60;;;2.83;;
56455;SDS011;42354;53.218;6.564;2023-03-25T11:46:07;16.20;;;2.97;;
56455;SDS011;42354;53.218;6.564;2023-03-25T11:48:35;16.95;;;2.20;;
56455;SDS011;42354;53.218;6.564;2023-03-25T11:51:27;14.90;;;2.95;;
56455;SDS011;42354;53.218;6.564;2023-03-25T11:54:00;15.55;;;3.22;;
56455;SDS011;42354;53.218;6.564;2023-03-25T11:56:39;14.38;;;2.22;;
56455;SDS011;42354;53.218;6.564;2023-03-25T11:59:07;15.05;;;3.05;;
56455;SDS011;42354;53.218;6.564;2023-03-25T12:01:45;16.08;;;2.72;;
56455;SDS011;42354;53.218;6.564;2023-03-25T12:06:54;15.73;;;2.63;;
56455;SDS011;42354;53.218;6.564;2023-03-25T12:09:23;16.17;;;4.15;;
56455;SDS011;42354;53.218;6.564;2023-03-25T12:28:45;15.63;;;2.35;;
56455;SDS011;42354;53.218;6.564;2023-03-25T12:36:51;16.65;;;2.50;;
56455;SDS011;42354;53.218;6.564;2023-03-25T12:42:06;11.68;;;2.67;;
56455;SDS011;42354;53.218;6.564;2023-03-25T12:50:21;17.02;;;2.80;;
56455;SDS011;42354;53.218;6.564;2023-03-25T12:52:59;13.48;;;2.63;;
56455;SDS011;42354;53.218;6.564;2023-03-25T13:06:41;19.45;;;3.97;;
56455;SDS011;42354;53.218;6.564;2023-03-25T13:12:25;17.85;;;3.15;;
56455;SDS011;42354;53.218;6.564;2023-03-25T13:14:56;25.58;;;4.13;;
56455;SDS011;42354;53.218;6.564;2023-03-25T13:17:45;17.08;;;3.17;;
56455;SDS011;42354;53.218;6.564;2023-03-25T13:20:28;16.77;;;3.05;;
56455;SDS011;42354;53.218;6.564;2023-03-25T13:22:59;14.52;;;3.88;;
56455;SDS011;42354;53.218;6.564;2023-03-25T13:25:56;15.52;;;3.38;;
56455;SDS011;42354;53.218;6.564;2023-03-25T13:28:26;18.55;;;3.92;;
56455;SDS011;42354;53.218;6.564;2023-03-25T13:31:02;18.33;;;3.55;;
56455;SDS011;42354;53.218;6.564;2023-03-25T13:33:32;18.92;;;2.88;;
56455;SDS011;42354;53.218;6.564;2023-03-25T13:36:08;18.85;;;2.72;;
56455;SDS011;42354;53.218;6.564;2023-03-25T13:39:02;21.67;;;2.50;;
56455;SDS011;42354;53.218;6.564;2023-03-25T13:41:37;18.00;;;2.80;;
56455;SDS011;42354;53.218;6.564;2023-03-25T13:44:17;11.80;;;2.08;;
56455;SDS011;42354;53.218;6.564;2023-03-25T13:46:49;13.40;;;2.22;;
56455;SDS011;42354;53.218;6.564;2023-03-25T13:49:26;11.80;;;1.98;;
56455;SDS011;42354;53.218;6.564;2023-03-25T13:51:56;13.80;;;2.17;;
56455;SDS011;42354;53.218;6.564;2023-03-25T13:54:31;17.25;;;2.55;;
56455;SDS011;42354;53.218;6.564;2023-03-25T14:02:59;18.77;;;3.20;;
56455;SDS011;42354;53.218;6.564;2023-03-25T14:13:36;9.85;;;2.42;;
56455;SDS011;42354;53.218;6.564;2023-03-25T14:16:08;8.00;;;1.50;;
56455;SDS011;42354;53.218;6.564;2023-03-25T14:18:48;8.63;;;1.90;;
56455;SDS011;42354;53.218;6.564;2023-03-25T14:21:30;12.88;;;2.03;;
56455;SDS011;42354;53.218;6.564;2023-03-25T14:27:01;17.45;;;2.53;;
56455;SDS011;42354;53.218;6.564;2023-03-25T14:29:39;11.98;;;2.25;;
56455;SDS011;42354;53.218;6.564;2023-03-25T14:34:47;14.95;;;3.03;;
56455;SDS011;42354;53.218;6.564;2023-03-25T14:48:41;15.05;;;2.72;;
56455;SDS011;42354;53.218;6.564;2023-03-25T14:59:20;10.68;;;2.17;;
56455;SDS011;42354;53.218;6.564;2023-03-25T15:01:49;14.40;;;2.25;;
56455;SDS011;42354;53.218;6.564;2023-03-25T15:04:27;15.75;;;2.88;;
56455;SDS011;42354;53.218;6.564;2023-03-25T15:06:58;15.95;;;2.72;;
56455;SDS011;42354;53.218;6.564;2023-03-25T15:09:26;17.08;;;2.55;;
56455;SDS011;42354;53.218;6.564;2023-03-25T15:12:00;14.43;;;3.03;;
56455;SDS011;42354;53.218;6.564;2023-03-25T15:14:30;17.35;;;3.47;;
56455;SDS011;42354;53.218;6.564;2023-03-25T15:17:03;12.45;;;2.50;;
56455;SDS011;42354;53.218;6.564;2023-03-25T15:22:37;16.13;;;1.85;;
56455;SDS011;42354;53.218;6.564;2023-03-25T15:25:06;11.77;;;3.00;;
56455;SDS011;42354;53.218;6.564;2023-03-25T15:27:45;16.30;;;2.63;;
56455;SDS011;42354;53.218;6.564;2023-03-25T15:30:25;10.38;;;2.42;;
56455;SDS011;42354;53.218;6.564;2023-03-25T15:32:56;10.40;;;1.85;;
56455;SDS011;42354;53.218;6.564;2023-03-25T15:35:49;20.33;;;3.05;;
56455;SDS011;42354;53.218;6.564;2023-03-25T15:38:30;15.63;;;2.25;;
56455;SDS011;42354;53.218;6.564;2023-03-25T16:01:02;17.70;;;2.88;;
56455;SDS011;42354;53.218;6.564;2023-03-25T16:03:37;19.83;;;2.28;;
56455;SDS011;42354;53.218;6.564;2023-03-25T16:06:03;17.67;;;2.47;;
56455;SDS011;42354;53.218;6.564;2023-03-25T16:08:33;10.63;;;1.95;;
56455;SDS011;42354;53.218;6.564;2023-03-25T16:13:45;11.25;;;2.20;;
56455;SDS011;42354;53.218;6.564;2023-03-25T16:16:12;14.10;;;2.55;;
56455;SDS011;42354;53.218;6.564;2023-03-25T16:18:42;14.63;;;2.05;;
56455;SDS011;42354;53.218;6.564;2023-03-25T16:21:09;13.35;;;2.28;;
56455;SDS011;42354;53.218;6.564;2023-03-25T16:23:35;12.35;;;2.63;;
56455;SDS011;42354;53.218;6.564;2023-03-25T16:26:01;16.63;;;2.70;;
56455;SDS011;42354;53.218;6.564;2023-03-25T16:30:58;12.73;;;2.85;;
56455;SDS011;42354;53.218;6.564;2023-03-25T16:33:31;12.18;;;2.13;;
56455;SDS011;42354;53.218;6.564;2023-03-25T16:36:06;13.65;;;2.80;;
56455;SDS011;42354;53.218;6.564;2023-03-25T16:38:37;14.60;;;2.35;;
56455;SDS011;42354;53.218;6.564;2023-03-25T16:41:04;15.27;;;2.92;;
56455;SDS011;42354;53.218;6.564;2023-03-25T16:43:35;16.67;;;3.07;;
56455;SDS011;42354;53.218;6.564;2023-03-25T16:46:01;19.92;;;3.42;;
56455;SDS011;42354;53.218;6.564;2023-03-25T16:48:29;20.40;;;3.25;;
56455;SDS011;42354;53.218;6.564;2023-03-25T16:51:04;17.58;;;3.30;;
56455;SDS011;42354;53.218;6.564;2023-03-25T16:53:40;16.90;;;4.03;;
56455;SDS011;42354;53.218;6.564;2023-03-25T16:59:39;12.68;;;3.15;;
56455;SDS011;42354;53.218;6.564;2023-03-25T17:02:01;18.27;;;3.72;;
56455;SDS011;42354;53.218;6.564;2023-03-25T17:04:46;17.90;;;3.50;;
56455;SDS011;42354;53.218;6.564;2023-03-25T17:07:18;21.95;;;3.47;;
56455;SDS011;42354;53.218;6.564;2023-03-25T17:09:51;15.80;;;3.63;;
56455;SDS011;42354;53.218;6.564;2023-03-25T17:12:19;18.10;;;3.65;;
56455;SDS011;42354;53.218;6.564;2023-03-25T17:14:46;27.77;;;4.20;;
56455;SDS011;42354;53.218;6.564;2023-03-25T17:19:47;14.68;;;3.42;;
56455;SDS011;42354;53.218;6.564;2023-03-25T17:27:55;22.50;;;4.53;;
56455;SDS011;42354;53.218;6.564;2023-03-25T17:30:38;22.83;;;4.07;;
56455;SDS011;42354;53.218;6.564;2023-03-25T17:33:31;20.10;;;3.45;;
56455;SDS011;42354;53.218;6.564;2023-03-25T17:35:59;21.13;;;4.90;;
56455;SDS011;42354;53.218;6.564;2023-03-25T17:38:42;18.35;;;3.70;;
56455;SDS011;42354;53.218;6.564;2023-03-25T17:41:09;17.17;;;3.77;;
56455;SDS011;42354;53.218;6.564;2023-03-25T17:43:39;19.52;;;3.28;;
56455;SDS011;42354;53.218;6.564;2023-03-25T17:46:20;19.52;;;3.80;;
56455;SDS011;42354;53.218;6.564;2023-03-25T17:48:48;21.20;;;4.38;;
56455;SDS011;42354;53.218;6.564;2023-03-25T17:51:17;21.27;;;5.30;;
56455;SDS011;42354;53.218;6.564;2023-03-25T17:53:44;21.35;;;4.47;;
56455;SDS011;42354;53.218;6.564;2023-03-25T17:56:11;26.70;;;5.10;;
56455;SDS011;42354;53.218;6.564;2023-03-25T17:58:37;27.88;;;4.25;;
56455;SDS011;42354;53.218;6.564;2023-03-25T18:01:03;23.58;;;5.75;;